Airfield :
LOGIN :

Register | Disclaimer

   EN    FR    IT 

 










Legend :    VFR   Marginal VFR   IFR   Intensive IFR   Very Intensive IFR
Visi :
Ceiling :
>= 8 km
>= 3000ft
5 to 8 km
1000 to 3000 ft
1500m to 5 km
500 to 1000 ft
800 to 1500m
200 to 500 ft
< 800m
< 200 ft
Symbols :   Thunderstorms  Fog  Heavy snow  Heavy precipitations  Wind > 20 kt
SIGMETs :     Misc.  Thunderstorms  Icing  Turbulence  Mountain Waves  Volcanic Ashes






- Airport Elevation : 80 ft
- IATA code : LPL


EGGP - Liverpool John Lennon

CURRENT METAR :
  • 290650Z 24012KT 9999 SCT024 SCT029TCU 15/11 Q1006

EXPIRED METARs :
  • 290620Z 24011KT 9999 FEW020 SCT024TCU 15/11 Q1005
  • 290550Z 24010KT 9999 FEW020 SCT023 14/11 Q1005
  • 290520Z 25012KT 9999 FEW020 SCT037 13/10 Q1005
  • 290450Z 26015KT 9999 FEW020 SCT039 14/11 Q1005
  • 290420Z AUTO 26015KT 9999 BKN020/// BKN026/// 13/11 Q1005

TAF TAF EGGP
Valid from the 29 at 06:00 until the 30 at 06:00 UTC


290454Z 2906/3006 25013KT 9999 SCT025
TEMPO 2906/2915 26016G26KT
BECMG 2921/2924 VRB03KT
TEMPO 3001/3006 6000 RA
PROB30
TEMPO 3003/3006 4000 +RA BKN014
ATIS : +44 151 907 2000 (option 5 or ext 5150)
Met : +44 871 750 5150



MET'MAP, your aeronautical weather chart ! - Copyright ORBIFLY December 2007 - Disclaimer

ORBIFLY MET'MAP TEAM :

Programming & Development : Alexandra Zaïnal
Concept & original design : Baudouin d'Aumeries
Assistance for programming : Marc-Olivier Méhu
Technical & hardware support : Manuel Goepfert

Contact : metmap@orbifly.com




SOURCES & CREDITS :

   NOAA